Atlanta, Georgia
Traffic Map
Current Weather Conditions
Atlanta, Georgia
Scattered Clouds
Scattered Clouds
25°
Feels Like: 26°
Wind Chill: 25° Ceiling: Unl
Heat Index: 26° Visibility: 10mi
Dew Point: 16° Wind: 16mph
Humidity: 58% Direction: 240° (WSW)
Pressure: 29.52in Gusts: 24mph
Raw Report DataKATL 241752Z 24014G21KT 10SM FEW035 SCT050 SCT250 25/16 A2952 RMK AO2 SLP986 CB DSNT NE-SE & SW-NW T02500161 10256 20194 58014
Traffic Incident Summary
Active as of:
Severity:
Category:
InformationThere was an issue retrieving the traffic information for this location. Please try a different location or try again shortly.
Advertisements
Track Severe Weather on mobile